sensor_id;sensor_type;location;lat;lon;timestamp;pressure;altitude;pressure_sealevel;temperature;humidity
23016;BME280;11674;52.428;13.584;2023-01-25T00:03:09;103607.78;;;3.85;83.02
23016;BME280;11674;52.428;13.584;2023-01-25T00:08:16;103592.84;;;3.87;82.78
23016;BME280;11674;52.428;13.584;2023-01-25T00:13:23;103581.50;;;3.90;83.04
23016;BME280;11674;52.428;13.584;2023-01-25T00:18:30;103564.34;;;3.88;83.08
23016;BME280;11674;52.428;13.584;2023-01-25T00:23:37;103554.19;;;3.97;83.22
23016;BME280;11674;52.428;13.584;2023-01-25T00:28:48;103542.63;;;4.09;83.09
23016;BME280;11674;52.428;13.584;2023-01-25T00:34:05;103515.50;;;4.14;82.79
23016;BME280;11674;52.428;13.584;2023-01-25T00:39:12;103502.41;;;4.16;82.55
23016;BME280;11674;52.428;13.584;2023-01-25T00:44:19;103503.94;;;4.19;82.96
23016;BME280;11674;52.428;13.584;2023-01-25T00:49:27;103494.97;;;4.25;82.83
23016;BME280;11674;52.428;13.584;2023-01-25T00:54:34;103483.03;;;4.18;82.62
23016;BME280;11674;52.428;13.584;2023-01-25T00:59:41;103485.59;;;4.19;82.56
23016;BME280;11674;52.428;13.584;2023-01-25T01:04:48;103484.25;;;4.15;82.67
23016;BME280;11674;52.428;13.584;2023-01-25T01:09:55;103493.63;;;4.21;83.03
23016;BME280;11674;52.428;13.584;2023-01-25T01:15:02;103497.91;;;4.23;82.77
23016;BME280;11674;52.428;13.584;2023-01-25T01:20:09;103498.84;;;4.16;82.63
23016;BME280;11674;52.428;13.584;2023-01-25T01:25:16;103498.84;;;4.16;82.78
23016;BME280;11674;52.428;13.584;2023-01-25T01:30:23;103498.94;;;4.22;82.65
23016;BME280;11674;52.428;13.584;2023-01-25T01:35:31;103488.34;;;4.19;82.63
23016;BME280;11674;52.428;13.584;2023-01-25T01:40:43;103490.78;;;4.14;82.93
23016;BME280;11674;52.428;13.584;2023-01-25T01:45:53;103490.41;;;4.17;82.89
23016;BME280;11674;52.428;13.584;2023-01-25T02:02:12;103485.38;;;4.21;83.07
23016;BME280;11674;52.428;13.584;2023-01-25T02:07:26;103477.66;;;4.24;82.99
23016;BME280;11674;52.428;13.584;2023-01-25T02:12:36;103476.94;;;4.30;82.90
23016;BME280;11674;52.428;13.584;2023-01-25T02:17:43;103474.66;;;4.34;82.88
23016;BME280;11674;52.428;13.584;2023-01-25T02:22:53;103473.28;;;4.38;82.67
23016;BME280;11674;52.428;13.584;2023-01-25T02:33:21;103470.31;;;4.39;82.73
23016;BME280;11674;52.428;13.584;2023-01-25T02:38:31;103462.94;;;4.40;82.73
23016;BME280;11674;52.428;13.584;2023-01-25T02:43:40;103470.53;;;4.38;82.39
23016;BME280;11674;52.428;13.584;2023-01-25T02:48:47;103463.13;;;4.38;82.47
23016;BME280;11674;52.428;13.584;2023-01-25T02:53:54;103440.97;;;4.40;82.42
23016;BME280;11674;52.428;13.584;2023-01-25T02:59:01;103453.84;;;4.39;82.67
23016;BME280;11674;52.428;13.584;2023-01-25T03:04:09;103441.13;;;4.38;82.64
23016;BME280;11674;52.428;13.584;2023-01-25T03:09:17;103436.34;;;4.40;82.49
23016;BME280;11674;52.428;13.584;2023-01-25T03:14:24;103433.59;;;4.40;82.69
23016;BME280;11674;52.428;13.584;2023-01-25T03:19:31;103429.84;;;4.33;82.24
23016;BME280;11674;52.428;13.584;2023-01-25T03:24:38;103426.63;;;4.30;82.59
23016;BME280;11674;52.428;13.584;2023-01-25T03:29:46;103428.78;;;4.34;82.76
23016;BME280;11674;52.428;13.584;2023-01-25T03:34:56;103422.09;;;4.37;82.55
23016;BME280;11674;52.428;13.584;2023-01-25T03:40:04;103415.19;;;4.41;82.46
23016;BME280;11674;52.428;13.584;2023-01-25T03:45:21;103413.56;;;4.32;82.47
23016;BME280;11674;52.428;13.584;2023-01-25T03:50:28;103411.47;;;4.34;82.84
23016;BME280;11674;52.428;13.584;2023-01-25T03:55:37;103407.50;;;4.36;82.64
23016;BME280;11674;52.428;13.584;2023-01-25T04:00:44;103401.44;;;4.41;82.65
23016;BME280;11674;52.428;13.584;2023-01-25T04:05:52;103391.97;;;4.43;82.71
23016;BME280;11674;52.428;13.584;2023-01-25T04:11:07;103387.66;;;4.49;82.53
23016;BME280;11674;52.428;13.584;2023-01-25T04:16:18;103368.19;;;4.50;82.46
23016;BME280;11674;52.428;13.584;2023-01-25T04:21:41;103367.38;;;4.50;82.51
23016;BME280;11674;52.428;13.584;2023-01-25T04:26:48;103353.44;;;4.51;82.47
23016;BME280;11674;52.428;13.584;2023-01-25T04:31:56;103349.19;;;4.49;82.22
23016;BME280;11674;52.428;13.584;2023-01-25T04:37:03;103345.56;;;4.48;82.31
23016;BME280;11674;52.428;13.584;2023-01-25T04:42:20;103347.09;;;4.51;82.54
23016;BME280;11674;52.428;13.584;2023-01-25T04:47:29;103329.72;;;4.50;82.35
23016;BME280;11674;52.428;13.584;2023-01-25T04:52:36;103321.22;;;4.45;82.43
23016;BME280;11674;52.428;13.584;2023-01-25T04:57:43;103321.00;;;4.47;82.73
23016;BME280;11674;52.428;13.584;2023-01-25T05:02:51;103323.41;;;4.50;82.52
23016;BME280;11674;52.428;13.584;2023-01-25T05:07:58;103313.47;;;4.49;82.66
23016;BME280;11674;52.428;13.584;2023-01-25T05:13:05;103308.91;;;4.56;82.76
23016;BME280;11674;52.428;13.584;2023-01-25T05:18:12;103316.78;;;4.59;82.52
23016;BME280;11674;52.428;13.584;2023-01-25T05:23:21;103311.94;;;4.61;82.55
23016;BME280;11674;52.428;13.584;2023-01-25T05:28:28;103306.09;;;4.64;82.46
23016;BME280;11674;52.428;13.584;2023-01-25T05:34:01;103310.72;;;4.63;82.47
23016;BME280;11674;52.428;13.584;2023-01-25T05:39:08;103314.31;;;4.64;82.70
23016;BME280;11674;52.428;13.584;2023-01-25T05:44:18;103311.19;;;4.67;82.47
23016;BME280;11674;52.428;13.584;2023-01-25T05:49:25;103305.22;;;4.63;82.62
23016;BME280;11674;52.428;13.584;2023-01-25T05:54:32;103300.09;;;4.60;82.50
23016;BME280;11674;52.428;13.584;2023-01-25T05:59:40;103304.94;;;4.58;82.44
23016;BME280;11674;52.428;13.584;2023-01-25T06:04:51;103300.31;;;4.59;82.81
23016;BME280;11674;52.428;13.584;2023-01-25T06:09:58;103297.03;;;4.55;82.80
23016;BME280;11674;52.428;13.584;2023-01-25T06:15:05;103291.19;;;4.58;82.71
23016;BME280;11674;52.428;13.584;2023-01-25T06:20:12;103284.00;;;4.57;82.65
23016;BME280;11674;52.428;13.584;2023-01-25T06:25:38;103280.38;;;4.57;82.76
23016;BME280;11674;52.428;13.584;2023-01-25T06:30:45;103275.63;;;4.51;82.60
23016;BME280;11674;52.428;13.584;2023-01-25T06:35:52;103268.63;;;4.48;82.88
23016;BME280;11674;52.428;13.584;2023-01-25T06:41:01;103275.81;;;4.49;82.71
23016;BME280;11674;52.428;13.584;2023-01-25T06:46:09;103280.19;;;4.44;82.67
23016;BME280;11674;52.428;13.584;2023-01-25T06:51:16;103278.38;;;4.36;82.63
23016;BME280;11674;52.428;13.584;2023-01-25T06:56:23;103268.91;;;4.39;82.88
23016;BME280;11674;52.428;13.584;2023-01-25T07:01:30;103255.81;;;4.41;83.01
23016;BME280;11674;52.428;13.584;2023-01-25T07:06:37;103254.69;;;4.35;82.86
23016;BME280;11674;52.428;13.584;2023-01-25T07:11:44;103250.44;;;4.33;82.91
23016;BME280;11674;52.428;13.584;2023-01-25T07:16:51;103243.03;;;4.33;82.99
23016;BME280;11674;52.428;13.584;2023-01-25T07:21:58;103244.25;;;4.31;83.00
23016;BME280;11674;52.428;13.584;2023-01-25T07:27:05;103237.06;;;4.30;82.74
23016;BME280;11674;52.428;13.584;2023-01-25T07:32:12;103233.66;;;4.13;82.43
23016;BME280;11674;52.428;13.584;2023-01-25T07:37:19;103236.28;;;4.07;82.73
23016;BME280;11674;52.428;13.584;2023-01-25T07:42:26;103221.50;;;4.08;83.16
23016;BME280;11674;52.428;13.584;2023-01-25T07:47:52;103219.94;;;4.13;83.42
23016;BME280;11674;52.428;13.584;2023-01-25T07:52:59;103220.09;;;4.12;82.56
23016;BME280;11674;52.428;13.584;2023-01-25T07:58:07;103214.63;;;4.12;82.94
23016;BME280;11674;52.428;13.584;2023-01-25T08:03:16;103210.63;;;4.14;83.01
23016;BME280;11674;52.428;13.584;2023-01-25T08:08:23;103205.44;;;4.19;82.98
23016;BME280;11674;52.428;13.584;2023-01-25T08:13:30;103207.13;;;4.20;83.21
23016;BME280;11674;52.428;13.584;2023-01-25T08:18:37;103193.00;;;4.23;83.07
23016;BME280;11674;52.428;13.584;2023-01-25T08:23:46;103186.22;;;4.19;83.15
23016;BME280;11674;52.428;13.584;2023-01-25T08:28:53;103182.78;;;4.17;83.14
23016;BME280;11674;52.428;13.584;2023-01-25T08:34:01;103173.50;;;4.18;83.18
23016;BME280;11674;52.428;13.584;2023-01-25T08:39:10;103173.13;;;4.21;83.09
23016;BME280;11674;52.428;13.584;2023-01-25T08:44:17;103177.75;;;4.21;82.74
23016;BME280;11674;52.428;13.584;2023-01-25T08:49:24;103185.06;;;4.14;83.01
23016;BME280;11674;52.428;13.584;2023-01-25T08:54:31;103176.25;;;4.04;82.64
23016;BME280;11674;52.428;13.584;2023-01-25T08:59:38;103176.72;;;4.07;83.02
23016;BME280;11674;52.428;13.584;2023-01-25T09:04:45;103182.59;;;4.04;82.64
23016;BME280;11674;52.428;13.584;2023-01-25T09:09:52;103169.34;;;4.08;83.21
23016;BME280;11674;52.428;13.584;2023-01-25T09:14:59;103173.97;;;4.07;82.91
23016;BME280;11674;52.428;13.584;2023-01-25T09:20:07;103178.22;;;4.10;82.93
23016;BME280;11674;52.428;13.584;2023-01-25T09:25:14;103172.44;;;4.05;82.59
23016;BME280;11674;52.428;13.584;2023-01-25T09:30:21;103170.75;;;4.04;82.91
23016;BME280;11674;52.428;13.584;2023-01-25T09:35:29;103173.69;;;4.02;83.10
23016;BME280;11674;52.428;13.584;2023-01-25T09:40:37;103161.47;;;4.05;83.19
23016;BME280;11674;52.428;13.584;2023-01-25T09:45:46;103155.91;;;4.13;83.21
23016;BME280;11674;52.428;13.584;2023-01-25T09:56:26;103149.72;;;3.96;82.76
23016;BME280;11674;52.428;13.584;2023-01-25T10:01:43;103144.91;;;3.98;83.04
23016;BME280;11674;52.428;13.584;2023-01-25T10:06:57;103146.16;;;3.96;82.52
23016;BME280;11674;52.428;13.584;2023-01-25T10:12:21;103124.66;;;3.99;83.26
23016;BME280;11674;52.428;13.584;2023-01-25T10:17:38;103122.56;;;4.01;82.78
23016;BME280;11674;52.428;13.584;2023-01-25T10:28:33;103115.66;;;3.91;82.86
23016;BME280;11674;52.428;13.584;2023-01-25T10:33:43;103100.22;;;3.90;83.05
23016;BME280;11674;52.428;13.584;2023-01-25T10:38:50;103102.22;;;3.96;83.26
23016;BME280;11674;52.428;13.584;2023-01-25T10:43:57;103090.66;;;4.00;82.78
23016;BME280;11674;52.428;13.584;2023-01-25T10:49:26;103085.19;;;3.86;82.71
23016;BME280;11674;52.428;13.584;2023-01-25T10:54:34;103073.91;;;3.81;82.91
23016;BME280;11674;52.428;13.584;2023-01-25T10:59:45;103063.97;;;3.80;82.99
23016;BME280;11674;52.428;13.584;2023-01-25T11:04:52;103067.00;;;3.85;82.98
23016;BME280;11674;52.428;13.584;2023-01-25T11:09:59;103055.47;;;3.75;82.69
23016;BME280;11674;52.428;13.584;2023-01-25T11:15:22;103042.38;;;3.77;83.17
23016;BME280;11674;52.428;13.584;2023-01-25T11:20:30;103041.16;;;3.79;82.98
23016;BME280;11674;52.428;13.584;2023-01-25T11:25:37;103009.09;;;3.80;82.92
23016;BME280;11674;52.428;13.584;2023-01-25T11:30:45;103017.50;;;3.78;83.28
23016;BME280;11674;52.428;13.584;2023-01-25T11:52:51;102967.28;;;3.99;82.90
23016;BME280;11674;52.428;13.584;2023-01-25T11:58:10;102945.00;;;3.87;82.58
23016;BME280;11674;52.428;13.584;2023-01-25T12:09:17;102922.63;;;3.90;83.07
23016;BME280;11674;52.428;13.584;2023-01-25T12:25:31;102895.50;;;3.81;82.51
23016;BME280;11674;52.428;13.584;2023-01-25T12:36:11;102878.50;;;3.71;82.97
23016;BME280;11674;52.428;13.584;2023-01-25T12:46:49;102864.78;;;3.71;82.81
23016;BME280;11674;52.428;13.584;2023-01-25T12:52:00;102851.16;;;3.77;83.21
23016;BME280;11674;52.428;13.584;2023-01-25T13:13:27;102838.94;;;3.80;83.08
23016;BME280;11674;52.428;13.584;2023-01-25T13:18:35;102829.91;;;3.86;83.22
23016;BME280;11674;52.428;13.584;2023-01-25T13:23:43;102821.59;;;3.79;82.93
23016;BME280;11674;52.428;13.584;2023-01-25T13:28:52;102817.34;;;3.77;83.20
23016;BME280;11674;52.428;13.584;2023-01-25T13:33:58;102816.19;;;3.86;83.04
23016;BME280;11674;52.428;13.584;2023-01-25T13:44:32;102798.84;;;3.85;82.64
23016;BME280;11674;52.428;13.584;2023-01-25T13:49:47;102790.56;;;3.79;82.88
23016;BME280;11674;52.428;13.584;2023-01-25T13:54:57;102777.03;;;3.77;82.77
23016;BME280;11674;52.428;13.584;2023-01-25T14:00:07;102772.00;;;3.81;83.18
23016;BME280;11674;52.428;13.584;2023-01-25T14:05:24;102767.03;;;3.91;82.99
23016;BME280;11674;52.428;13.584;2023-01-25T14:10:31;102765.78;;;3.93;83.05
23016;BME280;11674;52.428;13.584;2023-01-25T14:15:38;102753.25;;;3.84;82.21
23016;BME280;11674;52.428;13.584;2023-01-25T14:20:47;102746.34;;;3.67;82.39
23016;BME280;11674;52.428;13.584;2023-01-25T14:26:01;102744.44;;;3.68;82.72
23016;BME280;11674;52.428;13.584;2023-01-25T14:31:18;102743.44;;;3.75;83.02
23016;BME280;11674;52.428;13.584;2023-01-25T14:36:31;102729.00;;;3.67;82.66
23016;BME280;11674;52.428;13.584;2023-01-25T14:41:40;102723.34;;;3.68;83.11
23016;BME280;11674;52.428;13.584;2023-01-25T14:46:47;102723.16;;;3.70;82.93
23016;BME280;11674;52.428;13.584;2023-01-25T14:52:11;102727.13;;;3.67;83.10
23016;BME280;11674;52.428;13.584;2023-01-25T14:57:35;102714.41;;;3.60;82.85
23016;BME280;11674;52.428;13.584;2023-01-25T15:02:47;102696.63;;;3.56;82.84
23016;BME280;11674;52.428;13.584;2023-01-25T15:07:57;102698.84;;;3.46;82.41
23016;BME280;11674;52.428;13.584;2023-01-25T15:18:51;102677.75;;;3.46;83.31
23016;BME280;11674;52.428;13.584;2023-01-25T15:24:00;102670.88;;;3.57;83.15
23016;BME280;11674;52.428;13.584;2023-01-25T15:29:12;102659.97;;;3.63;83.19
23016;BME280;11674;52.428;13.584;2023-01-25T15:34:23;102657.22;;;3.63;82.95
23016;BME280;11674;52.428;13.584;2023-01-25T15:39:30;102661.47;;;3.66;83.10
23016;BME280;11674;52.428;13.584;2023-01-25T15:44:37;102653.69;;;3.69;83.08
23016;BME280;11674;52.428;13.584;2023-01-25T15:49:44;102648.44;;;3.68;82.93
23016;BME280;11674;52.428;13.584;2023-01-25T15:54:51;102647.56;;;3.67;82.70
23016;BME280;11674;52.428;13.584;2023-01-25T15:59:58;102637.78;;;3.58;82.66
23016;BME280;11674;52.428;13.584;2023-01-25T16:05:05;102631.66;;;3.56;82.82
23016;BME280;11674;52.428;13.584;2023-01-25T16:10:22;102638.38;;;3.54;82.92
23016;BME280;11674;52.428;13.584;2023-01-25T16:15:29;102615.53;;;3.47;82.42
23016;BME280;11674;52.428;13.584;2023-01-25T16:20:36;102607.09;;;3.48;83.01
23016;BME280;11674;52.428;13.584;2023-01-25T16:25:46;102607.06;;;3.42;82.80
23016;BME280;11674;52.428;13.584;2023-01-25T16:30:53;102597.53;;;3.38;82.76
23016;BME280;11674;52.428;13.584;2023-01-25T16:36:12;102593.34;;;3.42;83.10
23016;BME280;11674;52.428;13.584;2023-01-25T16:41:19;102582.38;;;3.42;82.86
23016;BME280;11674;52.428;13.584;2023-01-25T16:46:26;102588.44;;;3.37;82.67
23016;BME280;11674;52.428;13.584;2023-01-25T16:51:35;102581.63;;;3.27;82.58
23016;BME280;11674;52.428;13.584;2023-01-25T16:56:42;102566.66;;;3.29;83.16
23016;BME280;11674;52.428;13.584;2023-01-25T17:01:50;102568.97;;;3.32;83.16
23016;BME280;11674;52.428;13.584;2023-01-25T17:06:56;102556.19;;;3.39;82.85
23016;BME280;11674;52.428;13.584;2023-01-25T17:12:03;102545.22;;;3.39;83.04
23016;BME280;11674;52.428;13.584;2023-01-25T17:17:10;102547.53;;;3.36;82.47
23016;BME280;11674;52.428;13.584;2023-01-25T17:22:17;102540.94;;;3.30;82.56
23016;BME280;11674;52.428;13.584;2023-01-25T17:27:24;102536.88;;;3.26;82.89
23016;BME280;11674;52.428;13.584;2023-01-25T17:32:31;102543.47;;;3.32;82.77
23016;BME280;11674;52.428;13.584;2023-01-25T17:37:38;102529.56;;;3.33;82.98
23016;BME280;11674;52.428;13.584;2023-01-25T17:42:45;102526.78;;;3.27;82.71
23016;BME280;11674;52.428;13.584;2023-01-25T17:47:59;102524.03;;;3.27;83.05
23016;BME280;11674;52.428;13.584;2023-01-25T17:53:06;102513.31;;;3.32;83.11
23016;BME280;11674;52.428;13.584;2023-01-25T17:58:13;102510.16;;;3.35;83.04
23016;BME280;11674;52.428;13.584;2023-01-25T18:03:20;102509.53;;;3.33;82.56
23016;BME280;11674;52.428;13.584;2023-01-25T18:08:27;102498.25;;;3.21;82.70
23016;BME280;11674;52.428;13.584;2023-01-25T18:13:38;102489.78;;;3.16;82.72
23016;BME280;11674;52.428;13.584;2023-01-25T18:18:45;102491.81;;;3.08;82.54
23016;BME280;11674;52.428;13.584;2023-01-25T18:23:55;102480.34;;;2.98;82.76
23016;BME280;11674;52.428;13.584;2023-01-25T18:34:15;102486.94;;;3.03;83.00
23016;BME280;11674;52.428;13.584;2023-01-25T18:39:22;102476.38;;;3.00;82.83
23016;BME280;11674;52.428;13.584;2023-01-25T18:44:29;102478.09;;;3.01;82.76
23016;BME280;11674;52.428;13.584;2023-01-25T18:49:36;102482.50;;;3.02;82.96
23016;BME280;11674;52.428;13.584;2023-01-25T18:54:44;102461.03;;;3.06;83.10
23016;BME280;11674;52.428;13.584;2023-01-25T18:59:51;102462.34;;;3.10;82.95
23016;BME280;11674;52.428;13.584;2023-01-25T19:04:58;102448.63;;;3.10;82.85
23016;BME280;11674;52.428;13.584;2023-01-25T19:10:05;102438.06;;;3.07;82.86
23016;BME280;11674;52.428;13.584;2023-01-25T19:15:12;102434.31;;;3.14;83.15
23016;BME280;11674;52.428;13.584;2023-01-25T19:20:19;102419.56;;;3.15;82.89
23016;BME280;11674;52.428;13.584;2023-01-25T19:25:26;102417.81;;;3.08;82.25
23016;BME280;11674;52.428;13.584;2023-01-25T19:30:33;102404.28;;;3.00;82.80
23016;BME280;11674;52.428;13.584;2023-01-25T19:35:40;102415.25;;;3.00;82.82
23016;BME280;11674;52.428;13.584;2023-01-25T19:40:47;102400.69;;;2.99;82.54
23016;BME280;11674;52.428;13.584;2023-01-25T19:46:14;102394.13;;;2.94;82.65
23016;BME280;11674;52.428;13.584;2023-01-25T19:51:22;102376.81;;;2.93;82.88
23016;BME280;11674;52.428;13.584;2023-01-25T19:56:34;102376.22;;;2.98;83.12
23016;BME280;11674;52.428;13.584;2023-01-25T20:01:42;102364.19;;;2.92;82.61
23016;BME280;11674;52.428;13.584;2023-01-25T20:06:49;102365.44;;;2.90;82.86
23016;BME280;11674;52.428;13.584;2023-01-25T20:11:57;102360.38;;;2.93;82.90
23016;BME280;11674;52.428;13.584;2023-01-25T20:17:05;102353.91;;;3.01;82.87
23016;BME280;11674;52.428;13.584;2023-01-25T20:22:11;102351.34;;;2.99;82.48
23016;BME280;11674;52.428;13.584;2023-01-25T20:27:18;102338.41;;;2.87;82.37
23016;BME280;11674;52.428;13.584;2023-01-25T20:32:25;102345.75;;;2.80;82.71
23016;BME280;11674;52.428;13.584;2023-01-25T20:37:42;102356.72;;;2.80;82.49
23016;BME280;11674;52.428;13.584;2023-01-25T20:42:56;102344.50;;;2.82;83.13
23016;BME280;11674;52.428;13.584;2023-01-25T20:48:04;102334.41;;;2.83;82.77
23016;BME280;11674;52.428;13.584;2023-01-25T20:53:10;102338.97;;;2.76;82.60
23016;BME280;11674;52.428;13.584;2023-01-25T20:58:17;102319.59;;;2.77;83.00
23016;BME280;11674;52.428;13.584;2023-01-25T21:03:24;102322.53;;;2.76;82.70
23016;BME280;11674;52.428;13.584;2023-01-25T21:08:31;102322.09;;;2.72;82.72
23016;BME280;11674;52.428;13.584;2023-01-25T21:13:38;102315.81;;;2.72;82.41
23016;BME280;11674;52.428;13.584;2023-01-25T21:18:47;102315.38;;;2.75;83.05
23016;BME280;11674;52.428;13.584;2023-01-25T21:23:56;102310.38;;;2.85;83.17
23016;BME280;11674;52.428;13.584;2023-01-25T21:29:04;102313.16;;;2.91;83.11
23016;BME280;11674;52.428;13.584;2023-01-25T21:34:11;102310.63;;;2.90;82.78
23016;BME280;11674;52.428;13.584;2023-01-25T21:39:18;102292.69;;;2.87;82.73
23016;BME280;11674;52.428;13.584;2023-01-25T21:44:25;102288.50;;;2.91;82.77
23016;BME280;11674;52.428;13.584;2023-01-25T21:49:32;102292.94;;;2.92;82.77
23016;BME280;11674;52.428;13.584;2023-01-25T21:54:39;102299.44;;;2.85;82.54
23016;BME280;11674;52.428;13.584;2023-01-25T21:59:46;102287.59;;;2.84;82.54
23016;BME280;11674;52.428;13.584;2023-01-25T22:04:53;102295.00;;;2.84;82.61
23016;BME280;11674;52.428;13.584;2023-01-25T22:10:00;102291.81;;;2.80;82.65
23016;BME280;11674;52.428;13.584;2023-01-25T22:15:08;102287.84;;;2.83;82.69
23016;BME280;11674;52.428;13.584;2023-01-25T22:20:15;102278.94;;;2.81;82.55
23016;BME280;11674;52.428;13.584;2023-01-25T22:25:21;102278.56;;;2.84;82.72
23016;BME280;11674;52.428;13.584;2023-01-25T22:30:28;102273.09;;;2.90;82.90
23016;BME280;11674;52.428;13.584;2023-01-25T22:35:35;102269.91;;;2.87;82.62
23016;BME280;11674;52.428;13.584;2023-01-25T22:40:42;102268.19;;;2.79;82.70
23016;BME280;11674;52.428;13.584;2023-01-25T22:45:50;102250.97;;;2.85;83.03
23016;BME280;11674;52.428;13.584;2023-01-25T22:51:01;102249.28;;;2.91;82.84
23016;BME280;11674;52.428;13.584;2023-01-25T22:56:12;102243.41;;;2.94;82.57
23016;BME280;11674;52.428;13.584;2023-01-25T23:01:22;102237.03;;;2.80;82.28
23016;BME280;11674;52.428;13.584;2023-01-25T23:06:31;102241.03;;;2.78;82.48
23016;BME280;11674;52.428;13.584;2023-01-25T23:11:37;102228.16;;;2.78;82.57
23016;BME280;11674;52.428;13.584;2023-01-25T23:16:45;102228.59;;;2.82;82.49
23016;BME280;11674;52.428;13.584;2023-01-25T23:21:52;102216.97;;;2.73;82.29
23016;BME280;11674;52.428;13.584;2023-01-25T23:26:59;102217.38;;;2.70;82.54
23016;BME280;11674;52.428;13.584;2023-01-25T23:32:06;102204.75;;;2.69;82.78
23016;BME280;11674;52.428;13.584;2023-01-25T23:37:13;102207.50;;;2.76;82.66
23016;BME280;11674;52.428;13.584;2023-01-25T23:42:20;102199.69;;;2.73;82.63
23016;BME280;11674;52.428;13.584;2023-01-25T23:47:27;102195.47;;;2.77;82.88
23016;BME280;11674;52.428;13.584;2023-01-25T23:52:34;102179.09;;;2.83;82.83
23016;BME280;11674;52.428;13.584;2023-01-25T23:57:41;102178.03;;;2.84;82.48
